Time;durP1;ratioP1;P1;durP2;ratioP2;P2;SDS_P1;SDS_P2;PMS_P1;PMS_P2;Temp;Humidity;BMP_temperature;BMP_pressure;BME280_temperature;BME280_humidity;BME280_pressure;Samples;Min_cycle;Max_cycle;Signal;HPM_P1;HPM_P2
2023/01/21 00:01:45;;;;;;;26.42;10.80;;;-2.20;59.70;;;-7.74;100.00;95714.69;4968576;28;20025;-46
2023/01/21 00:04:11;;;;;;;26.17;11.82;;;-2.30;59.70;;;-7.80;100.00;95717.03;4956232;28;20042;-46
2023/01/21 00:06:40;;;;;;;26.48;11.77;;;-2.30;59.70;;;-7.87;100.00;95716.81;4955352;28;20022;-46
2023/01/21 00:09:10;;;;;;;23.50;11.45;;;-2.30;59.80;;;-7.93;100.00;95715.66;4973449;28;20026;-46
2023/01/21 00:11:36;;;;;;;25.50;11.93;;;-2.40;59.80;;;-7.96;100.00;95718.53;4971940;28;20052;-46
2023/01/21 00:14:07;;;;;;;24.88;11.65;;;-2.40;59.80;;;-7.95;100.00;95717.56;4972060;28;20073;-46
2023/01/21 00:16:32;;;;;;;22.17;11.25;;;-2.40;59.90;;;-7.97;100.00;95710.91;4972347;28;20034;-46
2023/01/21 00:18:58;;;;;;;23.40;10.95;;;-2.40;59.90;;;-8.00;100.00;95721.53;4955139;28;20033;-46
2023/01/21 00:21:24;;;;;;;25.85;11.23;;;-2.50;59.90;;;-8.04;100.00;95720.22;4972704;28;20018;-46
2023/01/21 00:23:50;;;;;;;20.08;10.68;;;-2.50;59.90;;;-8.07;100.00;95710.16;4955836;28;20496;-46
2023/01/21 00:26:16;;;;;;;25.20;11.02;;;-2.50;59.90;;;-8.12;100.00;95707.19;4951663;28;20023;-46
2023/01/21 00:28:46;;;;;;;28.67;12.85;;;-2.50;59.90;;;-8.11;100.00;95706.25;4960975;28;20029;-46
2023/01/21 00:31:15;;;;;;;23.50;10.88;;;-2.60;60.00;;;-8.07;100.00;95699.81;4948756;28;20062;-46
2023/01/21 00:33:47;;;;;;;25.83;11.48;;;-2.60;60.10;;;-8.05;100.00;95714.25;4966545;28;20034;-46
2023/01/21 00:36:17;;;;;;;24.43;10.87;;;-2.60;60.20;;;-8.07;100.00;95703.22;4952558;28;20019;-47
2023/01/21 00:38:52;;;;;;;25.90;10.80;;;-2.60;60.20;;;-8.10;100.00;95705.28;4955795;28;20030;-47
2023/01/21 00:41:23;;;;;;;22.55;10.40;;;-2.60;60.30;;;-8.15;100.00;95711.72;4972835;28;20129;-45
2023/01/21 00:43:49;;;;;;;19.35;10.15;;;-2.60;60.20;;;-8.20;100.00;95713.09;4971972;28;20038;-46
2023/01/21 00:46:15;;;;;;;23.90;9.73;;;-2.70;60.10;;;-8.25;100.00;95713.53;4971799;28;20496;-46
2023/01/21 00:48:41;;;;;;;22.45;10.43;;;-2.70;60.20;;;-8.20;100.00;95720.88;4970907;28;20448;-45
2023/01/21 00:51:08;;;;;;;22.42;10.23;;;-2.70;60.20;;;-8.21;100.00;95724.38;4951832;28;20023;-46
2023/01/21 00:53:40;;;;;;;18.70;9.82;;;-2.70;60.30;;;-8.24;100.00;95714.34;4968049;28;20041;-46
2023/01/21 00:56:12;;;;;;;19.17;9.60;;;-2.70;60.30;;;-8.30;100.00;95720.09;4972072;28;20076;-46
2023/01/21 00:58:38;;;;;;;24.42;10.93;;;-2.70;60.40;;;-8.32;100.00;95711.69;4972690;28;20026;-46
2023/01/21 01:01:33;;;;;;;21.73;10.27;;;-2.80;60.30;;;-8.23;100.00;95719.38;4970109;28;20026;-45
2023/01/21 01:03:59;;;;;;;19.50;9.57;;;-2.80;60.60;;;-8.22;100.00;95717.59;4961075;28;20049;-46
2023/01/21 01:06:25;;;;;;;19.75;9.13;;;-2.80;60.50;;;-8.23;100.00;95718.56;4969603;28;20030;-46
2023/01/21 01:09:03;;;;;;;18.88;9.38;;;-2.80;60.50;;;-8.20;100.00;95721.66;4961552;28;20030;-46
2023/01/21 01:11:30;;;;;;;21.73;9.73;;;-2.80;60.70;;;-8.19;100.00;95714.72;4971972;28;20022;-47
2023/01/21 01:14:02;;;;;;;17.55;9.82;;;-2.80;60.60;;;-8.18;100.00;95724.94;4971377;28;20354;-45
2023/01/21 01:16:28;;;;;;;15.75;8.27;;;-2.80;60.80;;;-8.19;100.00;95720.69;4967947;28;20031;-45
2023/01/21 01:18:55;;;;;;;15.48;8.35;;;-2.70;60.80;;;-8.21;100.00;95717.47;4962128;28;20026;-46
2023/01/21 01:21:29;;;;;;;21.55;9.70;;;-2.80;60.70;;;-8.21;100.00;95720.06;4935091;28;20026;-45
2023/01/21 01:24:01;;;;;;;17.85;9.07;;;-2.80;60.80;;;-8.22;100.00;95722.78;4964977;28;20393;-47
2023/01/21 01:26:28;;;;;;;18.95;9.55;;;-2.80;60.80;;;-8.26;100.00;95722.25;4971674;28;20549;-45
2023/01/21 01:28:54;;;;;;;17.23;9.00;;;-2.80;60.70;;;-8.25;100.00;95728.22;4971075;28;20109;-45
2023/01/21 01:31:26;;;;;;;21.20;10.10;;;-2.80;60.80;;;-8.28;100.00;95723.34;4970723;28;20381;-46
2023/01/21 01:33:55;;;;;;;21.00;9.60;;;-2.80;60.80;;;-8.39;100.00;95717.47;4970744;28;20028;-45
2023/01/21 01:36:25;;;;;;;19.52;9.50;;;-2.80;60.70;;;-8.41;100.00;95726.31;4970142;28;20113;-45
2023/01/21 01:38:52;;;;;;;20.75;9.65;;;-2.80;60.80;;;-8.41;100.00;95728.88;4953228;28;20038;-45
2023/01/21 01:41:26;;;;;;;16.92;9.30;;;-2.90;60.70;;;-8.43;100.00;95731.63;4970627;28;20025;-46
2023/01/21 01:44:48;;;;;;;22.90;9.93;;;-2.90;60.70;;;-8.48;100.00;95731.25;4952811;28;20061;-44
2023/01/21 01:47:15;;;;;;;22.33;9.23;;;-2.90;60.70;;;-8.47;100.00;95730.28;4951368;28;20109;-46
2023/01/21 01:49:51;;;;;;;20.90;9.15;;;-3.00;60.70;;;-8.45;100.00;95730.94;4962361;28;20022;-45
2023/01/21 01:52:19;;;;;;;21.92;9.90;;;-3.00;60.70;;;-8.46;100.00;95731.06;4970218;28;20033;-45
2023/01/21 01:54:52;;;;;;;21.27;10.10;;;-3.00;60.70;;;-8.48;100.00;95730.44;4969544;28;20106;-45
2023/01/21 01:57:35;;;;;;;21.67;10.23;;;-3.00;60.80;;;-8.50;100.00;95730.56;4954468;28;20030;-45
2023/01/21 02:00:07;;;;;;;20.00;10.77;;;-3.10;60.70;;;-8.53;100.00;95720.50;4953972;28;20421;-45
2023/01/21 02:02:35;;;;;;;21.60;11.15;;;-3.10;60.70;;;-8.55;100.00;95726.75;4966279;28;20097;-44
2023/01/21 02:05:10;;;;;;;23.70;11.02;;;-3.10;60.80;;;-8.58;100.00;95717.56;4966371;28;20030;-43
2023/01/21 02:07:45;;;;;;;19.70;9.88;;;-3.10;60.90;;;-8.63;100.00;95720.56;4952770;28;20430;-46
2023/01/21 02:10:18;;;;;;;26.10;11.52;;;-3.10;60.90;;;-8.64;100.00;95720.72;4953731;28;20057;-48
2023/01/21 02:12:45;;;;;;;23.65;10.43;;;-3.10;60.90;;;-8.64;100.00;95724.09;4953062;28;20030;-43
2023/01/21 02:15:14;;;;;;;26.30;11.40;;;-3.10;61.00;;;-8.64;100.00;95723.28;4953031;28;20397;-43
2023/01/21 02:18:13;;;;;;;25.75;11.43;;;-3.10;61.10;;;-8.66;100.00;95725.19;4953945;28;20022;-47
2023/01/21 02:21:03;;;;;;;24.45;11.95;;;-3.10;61.20;;;-8.67;100.00;95728.75;4970851;28;20323;-43
2023/01/21 02:23:58;;;;;;;22.10;11.13;;;-3.10;61.10;;;-8.67;100.00;95726.97;4962681;28;20054;-44
2023/01/21 02:27:12;;;;;;;26.08;11.32;;;-3.20;61.20;;;-8.60;100.00;95723.81;4953055;28;20049;-43
2023/01/21 02:30:03;;;;;;;22.70;11.02;;;-3.10;61.30;;;-8.59;100.00;95721.06;4958067;28;20036;-44
2023/01/21 02:33:07;;;;;;;25.17;10.60;;;-3.20;61.20;;;-8.63;100.00;95714.56;4969950;28;20038;-44
2023/01/21 02:35:59;;;;;;;21.67;9.82;;;-3.10;61.30;;;-8.73;100.00;95718.97;4970850;28;20018;-44
2023/01/21 02:38:59;;;;;;;28.60;10.40;;;-3.20;61.20;;;-8.76;100.00;95717.50;4970566;28;20401;-43
2023/01/21 02:42:10;;;;;;;21.63;10.05;;;-3.20;61.10;;;-8.78;100.00;95716.00;4953213;28;20026;-43
2023/01/21 02:45:15;;;;;;;27.55;11.15;;;-3.20;61.10;;;-8.83;100.00;95721.59;4943594;28;20121;-44
2023/01/21 02:48:30;;;;;;;23.92;11.80;;;-3.30;61.10;;;-8.80;100.00;95720.50;4962646;28;20050;-43
2023/01/21 02:50:57;;;;;;;25.50;11.75;;;-3.30;61.20;;;-8.83;100.00;95728.53;4942953;28;20026;-43
2023/01/21 02:53:33;;;;;;;31.33;13.40;;;-3.30;61.20;;;-8.82;100.00;95720.63;4950977;28;20034;-43
2023/01/21 02:56:13;;;;;;;25.70;13.70;;;-3.30;61.40;;;-8.82;100.00;95712.88;4949719;28;20485;-43
2023/01/21 02:59:04;;;;;;;25.45;12.25;;;-3.30;61.60;;;-8.84;100.00;95722.53;4953858;28;20026;-44
2023/01/21 03:02:26;;;;;;;26.13;11.93;;;-3.40;61.60;;;-8.89;100.00;95730.72;4950455;28;20025;-44
2023/01/21 03:05:24;;;;;;;22.42;10.75;;;-3.30;61.60;;;-8.88;100.00;95721.19;4966896;28;20074;-43
2023/01/21 03:08:14;;;;;;;26.98;12.98;;;-3.30;61.50;;;-8.91;100.00;95726.66;4943065;28;20117;-44
2023/01/21 03:11:02;;;;;;;29.70;13.43;;;-3.40;61.50;;;-8.90;100.00;95731.69;4960615;28;20037;-43
2023/01/21 03:17:30;;;;;;;26.63;12.23;;;-3.40;61.60;;;-8.89;100.00;95737.66;4941738;29;20173;-43
2023/01/21 03:20:25;;;;;;;29.83;13.15;;;-3.40;61.50;;;-8.93;100.00;95733.72;4962105;28;20022;-44
2023/01/21 03:23:02;;;;;;;29.83;13.55;;;-3.40;61.60;;;-8.99;100.00;95734.25;4966457;28;20049;-43
2023/01/21 03:25:34;;;;;;;25.00;13.35;;;-3.40;61.60;;;-8.96;100.00;95726.25;4968364;28;20040;-43
2023/01/21 03:28:14;;;;;;;26.67;12.32;;;-3.40;61.60;;;-8.92;100.00;95719.88;4952142;28;20050;-45
2023/01/21 03:30:57;;;;;;;28.38;12.07;;;-3.40;61.70;;;-8.93;100.00;95724.22;4935975;28;20059;-43
2023/01/21 03:33:28;;;;;;;27.80;12.30;;;-3.40;61.60;;;-8.96;100.00;95726.25;4954740;28;20082;-43
2023/01/21 03:36:07;;;;;;;24.25;12.48;;;-3.40;61.60;;;-8.94;100.00;95729.50;4965574;28;20069;-44
2023/01/21 03:38:48;;;;;;;30.90;14.32;;;-3.50;61.60;;;-8.92;100.00;95719.88;4956289;28;20494;-44
2023/01/21 03:41:32;;;;;;;24.80;12.45;;;-3.40;61.70;;;-8.88;100.00;95721.19;4956820;28;20038;-43
2023/01/21 03:43:59;;;;;;;30.58;12.55;;;-3.40;62.60;;;-8.90;100.00;95718.78;4967575;28;20027;-43
2023/01/21 03:46:55;;;;;;;25.23;12.07;;;-3.40;61.70;;;-8.93;100.00;95713.91;4953296;28;20105;-44
2023/01/21 03:49:41;;;;;;;31.02;14.25;;;-3.40;61.70;;;-8.97;100.00;95715.09;4957741;28;20388;-43
2023/01/21 03:52:14;;;;;;;32.10;13.55;;;-3.40;61.80;;;-9.00;100.00;95714.56;4970007;28;20520;-44
2023/01/21 03:54:47;;;;;;;26.08;13.35;;;-3.40;61.80;;;-9.03;100.00;95726.00;4968197;28;20034;-44
2023/01/21 03:57:18;;;;;;;26.45;13.40;;;-3.40;61.80;;;-9.07;100.00;95719.50;4963656;28;20023;-44
2023/01/21 03:59:47;;;;;;;29.10;13.40;;;-3.40;61.80;;;-9.09;100.00;95727.38;4950896;29;20456;-43
2023/01/21 04:02:18;;;;;;;37.45;15.60;;;-3.40;61.80;;;-9.09;100.00;95729.13;4958776;28;20026;-44
2023/01/21 04:04:46;;;;;;;30.20;15.88;;;-3.50;61.80;;;-8.99;100.00;95735.09;4969236;28;20026;-44
2023/01/21 04:07:15;;;;;;;28.27;13.93;;;-3.40;62.00;;;-8.94;100.00;95740.66;4971418;28;20535;-43
2023/01/21 04:09:41;;;;;;;32.17;14.57;;;-3.40;62.10;;;-8.90;100.00;95733.44;4962407;28;20126;-48
2023/01/21 04:12:11;;;;;;;33.30;14.93;;;-3.40;62.10;;;-8.85;100.00;95734.63;4972102;28;20545;-43
2023/01/21 04:14:39;;;;;;;34.45;15.68;;;-3.40;62.20;;;-8.79;100.00;95735.03;4966896;28;20442;-46
2023/01/21 04:17:05;;;;;;;37.55;15.85;;;-3.30;62.30;;;-8.70;100.00;95723.88;4958130;28;20049;-44
2023/01/21 04:19:31;;;;;;;32.90;16.10;;;-3.30;62.30;;;-8.62;100.00;95729.94;4954120;28;20552;-43
2023/01/21 04:22:00;;;;;;;29.23;14.57;;;-3.20;62.50;;;-8.59;100.00;95731.41;4954243;28;20473;-43
2023/01/21 04:24:32;;;;;;;27.65;13.57;;;-3.20;62.50;;;-8.57;100.00;95729.50;4968833;28;20030;-43
2023/01/21 04:27:01;;;;;;;30.40;13.57;;;-3.20;62.50;;;-8.56;100.00;95733.72;4972433;28;20026;-43
2023/01/21 04:29:32;;;;;;;22.98;12.88;;;-3.10;62.50;;;-8.60;100.00;95734.97;4972169;28;20034;-44
2023/01/21 04:32:01;;;;;;;26.23;12.48;;;-3.10;62.40;;;-8.67;100.00;95737.31;4968516;28;20026;-44
2023/01/21 04:34:33;;;;;;;29.73;13.32;;;-3.10;62.40;;;-8.71;100.00;95742.88;4954912;28;20026;-43
2023/01/21 04:37:01;;;;;;;28.03;13.70;;;-3.10;62.30;;;-8.72;100.00;95736.09;4970540;28;20022;-43
2023/01/21 04:39:27;;;;;;;26.33;13.23;;;-3.10;62.20;;;-8.75;100.00;95742.34;4971061;28;20317;-43
2023/01/21 04:41:58;;;;;;;29.02;13.32;;;-3.10;62.20;;;-8.77;100.00;95746.84;4971427;28;20065;-43
2023/01/21 04:44:24;;;;;;;24.90;13.52;;;-3.10;62.10;;;-8.76;100.00;95743.31;4969017;28;20438;-43
2023/01/21 04:46:52;;;;;;;28.58;13.02;;;-3.10;62.10;;;-8.78;100.00;95741.81;4953085;28;20213;-43
2023/01/21 04:49:18;;;;;;;34.30;14.85;;;-3.10;62.10;;;-8.79;100.00;95738.44;4967512;28;20459;-43
2023/01/21 04:51:50;;;;;;;31.77;14.57;;;-3.10;62.10;;;-8.70;100.00;95729.84;4968765;28;20024;-43
2023/01/21 04:54:16;;;;;;;29.33;14.20;;;-3.10;62.30;;;-8.59;100.00;95734.00;4955848;28;20081;-49
2023/01/21 04:56:44;;;;;;;28.33;14.25;;;-3.10;62.30;;;-8.49;100.00;95726.19;4968700;28;20030;-43
2023/01/21 04:59:11;;;;;;;33.25;15.43;;;-3.10;62.40;;;-8.45;100.00;95724.97;4970591;28;20420;-43
2023/01/21 05:01:37;;;;;;;28.52;12.82;;;-3.00;62.60;;;-8.42;100.00;95719.53;4950804;28;20061;-46
2023/01/21 05:04:03;;;;;;;33.63;15.05;;;-3.00;62.60;;;-8.42;100.00;95725.50;4970219;28;20042;-44
2023/01/21 05:06:29;;;;;;;32.55;15.40;;;-2.90;62.50;;;-8.41;100.00;95728.88;4970112;28;20404;-45
2023/01/21 05:08:54;;;;;;;37.13;18.45;;;-2.90;62.50;;;-8.41;100.00;95724.53;4971923;28;20026;-44
2023/01/21 05:11:20;;;;;;;35.30;16.95;;;-2.90;62.40;;;-8.35;100.00;95728.28;4958041;28;20031;-45
2023/01/21 05:13:46;;;;;;;39.25;16.55;;;-2.80;62.60;;;-8.29;100.00;95732.88;4952164;28;20030;-45
2023/01/21 05:16:13;;;;;;;41.70;18.02;;;-2.90;62.60;;;-8.28;100.00;95739.66;4966307;28;20029;-44
2023/01/21 05:18:57;;;;;;;45.58;18.50;;;-2.80;62.60;;;-8.25;100.00;95736.78;4970143;28;20026;-46
2023/01/21 05:21:23;;;;;;;43.53;19.60;;;-2.80;62.70;;;-8.17;100.00;95747.22;4971325;28;20023;-44
2023/01/21 05:23:48;;;;;;;44.67;19.13;;;-2.80;62.70;;;-8.08;100.00;95742.97;4953975;28;20034;-47
2023/01/21 05:26:18;;;;;;;37.20;17.67;;;-2.70;62.90;;;-8.02;100.00;95750.16;4952708;28;20117;-43
2023/01/21 05:28:44;;;;;;;37.80;18.02;;;-2.70;62.90;;;-7.95;100.00;95745.19;4970090;28;20079;-43
2023/01/21 05:31:10;;;;;;;39.05;18.08;;;-2.60;63.00;;;-7.88;100.00;95743.66;4969847;28;20477;-44
2023/01/21 05:33:44;;;;;;;38.20;18.17;;;-2.60;63.00;;;-7.83;100.00;95744.03;4971311;28;20389;-44
2023/01/21 05:36:16;;;;;;;38.75;17.63;;;-2.50;63.10;;;-7.82;100.00;95745.66;4958827;28;20071;-45
2023/01/21 05:38:41;;;;;;;31.85;15.38;;;-2.40;63.10;;;-7.82;100.00;95744.84;4969845;28;20030;-48
2023/01/21 05:41:11;;;;;;;37.20;17.70;;;-2.40;63.00;;;-7.80;100.00;95743.75;4953453;28;20029;-46
2023/01/21 05:43:43;;;;;;;37.90;16.92;;;-2.30;63.00;;;-7.80;100.00;95735.97;4965890;28;20038;-49
2023/01/21 05:46:12;;;;;;;36.00;16.40;;;-2.30;62.90;;;-7.79;100.00;95740.19;4953382;28;20525;-46
2023/01/21 05:48:49;;;;;;;30.13;14.75;;;-2.20;62.90;;;-7.80;100.00;95740.31;4969668;28;20062;-44
2023/01/21 05:51:18;;;;;;;35.92;16.35;;;-2.20;62.90;;;-7.76;100.00;95736.50;4970825;28;20034;-46
2023/01/21 05:53:47;;;;;;;36.10;17.92;;;-2.10;62.90;;;-7.73;100.00;95742.19;4970953;28;20026;-44
2023/01/21 05:56:15;;;;;;;36.60;15.05;;;-2.10;62.80;;;-7.64;100.00;95737.09;4958157;28;20106;-45
2023/01/21 05:58:41;;;;;;;37.75;15.63;;;-2.10;62.90;;;-7.61;100.00;95737.59;4951604;28;20030;-47
2023/01/21 06:01:07;;;;;;;33.47;16.58;;;-2.00;62.90;;;-7.55;100.00;95733.59;4967374;28;20076;-46
2023/01/21 06:03:34;;;;;;;35.15;16.13;;;-2.00;62.90;;;-7.48;100.00;95742.41;4965037;28;20122;-48
2023/01/21 06:06:00;;;;;;;35.80;17.00;;;-1.90;63.00;;;-7.40;100.00;95744.22;4967482;28;20101;-47
2023/01/21 06:08:26;;;;;;;40.08;17.45;;;-1.90;63.80;;;-7.35;100.00;95740.25;4969416;28;20050;-45
2023/01/21 06:10:58;;;;;;;29.95;14.90;;;-1.80;63.10;;;-7.29;100.00;95744.81;4949479;28;20018;-46
2023/01/21 06:13:29;;;;;;;35.60;16.58;;;-1.80;63.10;;;-7.30;100.00;95742.38;4949181;28;20023;-45
2023/01/21 06:15:56;;;;;;;35.17;15.82;;;-1.70;63.90;;;-7.28;100.00;95743.03;4953427;28;20485;-46
2023/01/21 06:18:24;;;;;;;29.65;15.40;;;-1.70;63.00;;;-7.28;100.00;95743.03;4949528;28;20560;-44
2023/01/21 06:20:50;;;;;;;27.65;14.57;;;-1.60;63.00;;;-7.30;100.00;95744.94;4952789;28;20401;-44
2023/01/21 06:23:16;;;;;;;30.58;14.40;;;-1.60;62.90;;;-7.33;100.00;95740.91;4953206;28;20022;-47
2023/01/21 06:25:42;;;;;;;33.55;15.80;;;-1.60;62.70;;;-7.32;100.00;95746.91;4966565;28;20416;-44
2023/01/21 06:28:12;;;;;;;32.30;16.17;;;-1.60;62.70;;;-7.32;100.00;95754.66;4966523;28;20026;-44
2023/01/21 06:30:43;;;;;;;28.52;14.63;;;-1.60;62.70;;;-7.34;100.00;95749.63;4956327;28;20292;-45
2023/01/21 06:33:12;;;;;;;29.80;15.77;;;-1.60;62.60;;;-7.36;100.00;95753.31;4966223;28;20034;-43
2023/01/21 06:35:37;;;;;;;28.13;14.07;;;-1.60;62.60;;;-7.35;100.00;95747.19;4935953;28;20463;-44
2023/01/21 06:38:03;;;;;;;31.95;15.07;;;-1.60;62.60;;;-7.34;100.00;95754.00;4948175;28;20138;-44
2023/01/21 06:40:36;;;;;;;30.85;15.93;;;-1.60;62.60;;;-7.35;100.00;95757.56;4962369;28;20034;-44
2023/01/21 06:43:07;;;;;;;31.45;15.55;;;-1.60;62.60;;;-7.36;100.00;95751.56;4969199;28;20033;-43
2023/01/21 06:45:36;;;;;;;31.17;15.55;;;-1.60;62.60;;;-7.37;100.00;95760.28;4952339;28;20042;-46
2023/01/21 06:48:05;;;;;;;28.05;14.38;;;-1.60;62.60;;;-7.38;100.00;95758.66;4939901;28;20022;-44
2023/01/21 06:50:34;;;;;;;27.92;14.43;;;-1.60;62.60;;;-7.37;100.00;95765.44;4967868;28;20054;-44
2023/01/21 06:53:17;;;;;;;31.40;15.57;;;-1.60;62.60;;;-7.36;100.00;95764.50;4969584;28;20052;-43
2023/01/21 06:55:52;;;;;;;26.70;13.43;;;-1.60;62.60;;;-7.36;100.00;95771.44;4967453;28;20048;-44
2023/01/21 06:58:18;;;;;;;28.27;14.27;;;-1.60;62.60;;;-7.37;100.00;95775.81;4952753;28;20481;-44
2023/01/21 07:00:49;;;;;;;25.20;13.27;;;-1.60;62.50;;;-7.36;100.00;95774.84;4968790;28;20033;-47
2023/01/21 07:03:18;;;;;;;31.55;16.55;;;-1.60;62.60;;;-7.33;100.00;95777.16;4968630;28;20549;-44
2023/01/21 07:05:46;;;;;;;31.08;14.80;;;-1.60;62.60;;;-7.28;100.00;95780.09;4948926;28;20040;-44
2023/01/21 07:08:12;;;;;;;33.47;14.52;;;-1.60;62.60;;;-7.26;100.00;95785.13;4947042;28;20473;-44
2023/01/21 07:10:41;;;;;;;24.10;13.10;;;-1.60;62.60;;;-7.25;100.00;95786.75;4939405;28;20552;-44
2023/01/21 07:13:07;;;;;;;26.85;14.25;;;-1.60;62.60;;;-7.26;100.00;95782.53;4967222;28;20022;-44
2023/01/21 07:15:33;;;;;;;30.23;14.27;;;-1.60;62.60;;;-7.25;100.00;95784.16;4968742;28;20018;-44
2023/01/21 07:17:59;;;;;;;30.92;14.20;;;-1.60;62.60;;;-7.25;100.00;95792.72;4960792;28;20028;-44
2023/01/21 07:20:25;;;;;;;33.78;16.80;;;-1.50;62.70;;;-7.22;100.00;95792.44;4945271;28;20026;-44
2023/01/21 07:22:51;;;;;;;40.35;19.05;;;-1.60;62.70;;;-7.14;100.00;95798.66;4964388;28;20113;-45
2023/01/21 07:25:17;;;;;;;37.90;18.27;;;-1.50;62.80;;;-7.01;100.00;95799.09;4947003;28;20122;-53
2023/01/21 07:27:43;;;;;;;35.75;18.02;;;-1.40;63.00;;;-6.89;100.00;95794.44;4961560;28;20025;-44
2023/01/21 07:30:18;;;;;;;36.45;18.17;;;-1.40;63.20;;;-6.78;100.00;95799.41;4965993;28;20030;-44
2023/01/21 07:32:46;;;;;;;38.33;17.75;;;-1.30;63.40;;;-6.70;100.00;95796.88;4966665;28;20072;-47
2023/01/21 07:35:13;;;;;;;35.03;18.48;;;-1.20;63.40;;;-6.62;100.00;95806.47;4960568;28;20069;-44
2023/01/21 07:37:40;;;;;;;33.53;16.23;;;-1.10;63.50;;;-6.55;100.00;95804.88;4934795;28;20034;-46
2023/01/21 07:40:09;;;;;;;34.38;16.52;;;-1.10;63.50;;;-6.47;100.00;95796.34;4966126;28;20389;-48
2023/01/21 07:42:35;;;;;;;31.60;16.42;;;-1.00;63.40;;;-6.42;100.00;95810.47;4970024;28;20049;-45
2023/01/21 07:45:13;;;;;;;31.05;16.40;;;-0.90;63.40;;;-6.35;100.00;95808.09;4968011;28;20566;-44
2023/01/21 07:47:42;;;;;;;29.13;15.80;;;-0.70;63.30;;;-6.30;100.00;95806.66;4966117;28;20180;-48
2023/01/21 07:50:17;;;;;;;33.35;16.50;;;-0.70;63.20;;;-6.25;100.00;95806.19;4968140;28;20131;-46
2023/01/21 07:52:43;;;;;;;36.15;18.25;;;-0.60;63.20;;;-6.18;100.00;95814.97;4970707;28;20030;-44
2023/01/21 07:55:10;;;;;;;34.47;17.25;;;-0.50;63.20;;;-6.14;100.00;95818.06;4969509;28;20382;-44
2023/01/21 07:57:41;;;;;;;33.35;17.73;;;-0.50;63.20;;;-6.08;100.00;95812.25;4970238;28;20033;-44
2023/01/21 08:00:12;;;;;;;37.73;18.43;;;-0.40;63.20;;;-6.05;100.00;95822.31;4953687;28;20030;-44
2023/01/21 08:02:39;;;;;;;38.08;18.23;;;-0.40;63.10;;;-6.01;100.00;95817.66;4968014;28;20034;-44
2023/01/21 08:05:08;;;;;;;39.50;19.63;;;-0.30;63.10;;;-5.96;100.00;95815.38;4965246;28;20034;-46
2023/01/21 08:07:36;;;;;;;33.25;18.08;;;-0.30;63.80;;;-5.94;100.00;95816.84;4969415;28;20092;-44
2023/01/21 08:10:03;;;;;;;36.75;19.33;;;-0.30;62.90;;;-5.92;100.00;95824.44;4962597;28;20030;-44
2023/01/21 08:12:29;;;;;;;39.03;18.88;;;-0.20;62.90;;;-5.86;100.00;95824.66;4950017;28;20026;-48
2023/01/21 08:15:02;;;;;;;38.70;19.52;;;-0.20;62.80;;;-5.81;100.00;95822.38;4970979;28;20044;-46
2023/01/21 08:17:28;;;;;;;40.00;18.55;;;-0.10;62.90;;;-5.77;100.00;95827.25;4969507;28;20026;-45
2023/01/21 08:19:54;;;;;;;39.58;18.27;;;0.00;62.80;;;-5.69;100.00;95829.88;4968948;28;20029;-44
2023/01/21 08:22:20;;;;;;;32.05;17.35;;;0.00;62.80;;;-5.69;100.00;95822.91;4968774;28;20085;-45
2023/01/21 08:24:45;;;;;;;33.42;18.30;;;0.10;62.70;;;-5.62;100.00;95833.47;4971162;28;20054;-44
2023/01/21 08:27:11;;;;;;;33.95;17.08;;;0.20;62.70;;;-5.53;100.00;95831.72;4968592;28;20128;-46
2023/01/21 08:29:37;;;;;;;35.00;17.30;;;0.30;62.70;;;-5.44;100.00;95838.56;4972465;28;20428;-44
2023/01/21 08:32:05;;;;;;;33.22;18.63;;;0.40;62.70;;;-5.39;100.00;95826.72;4971287;28;20503;-45
2023/01/21 08:34:34;;;;;;;30.85;17.05;;;0.50;62.70;;;-5.25;100.00;95827.88;4971118;28;20034;-44
2023/01/21 08:37:00;;;;;;;36.53;17.02;;;0.60;62.60;;;-5.11;100.00;95829.00;4968883;28;20022;-44
2023/01/21 08:39:26;;;;;;;27.92;17.27;;;0.80;62.60;;;-5.02;99.86;95835.03;4972402;28;20064;-43
2023/01/21 08:41:52;;;;;;;30.52;17.23;;;0.90;62.50;;;-4.91;99.89;95838.13;4972220;28;21164;-46
2023/01/21 08:44:17;;;;;;;34.03;17.00;;;1.00;62.40;;;-4.80;99.25;95838.78;4953651;28;20041;-47
2023/01/21 08:46:43;;;;;;;30.27;16.73;;;1.20;62.40;;;-4.68;99.47;95837.47;4938036;28;20030;-45
2023/01/21 08:49:09;;;;;;;30.10;17.13;;;1.40;62.20;;;-4.58;98.57;95835.50;4953331;28;20045;-44
2023/01/21 08:51:35;;;;;;;31.92;18.27;;;1.60;62.10;;;-4.39;98.53;95841.34;4971150;28;20052;-44
2023/01/21 08:54:04;;;;;;;33.90;17.38;;;1.80;62.00;;;-4.30;97.73;95837.75;4971903;28;20259;-45
2023/01/21 08:56:30;;;;;;;31.77;17.50;;;2.00;61.80;;;-4.14;97.54;95832.50;4969339;28;20041;-44
2023/01/21 08:58:57;;;;;;;30.50;18.08;;;2.20;61.60;;;-3.98;96.91;95842.88;4954446;28;20026;-45
2023/01/21 09:01:25;;;;;;;32.60;18.27;;;2.40;61.30;;;-3.87;95.92;95844.31;4970024;28;20095;-45
2023/01/21 09:04:00;;;;;;;30.40;17.52;;;2.70;61.10;;;-3.76;95.17;95845.72;4962282;28;20105;-45
2023/01/21 09:06:29;;;;;;;33.58;17.60;;;2.80;60.70;;;-3.61;94.62;95838.81;4952990;28;20026;-44
2023/01/21 09:08:56;;;;;;;30.73;17.67;;;3.00;60.50;;;-3.45;93.82;95844.94;4953174;28;20407;-44
2023/01/21 09:11:23;;;;;;;33.80;19.50;;;3.20;60.30;;;-3.34;93.64;95844.56;4954066;28;20083;-52
2023/01/21 09:13:52;;;;;;;30.15;17.60;;;3.30;60.00;;;-3.26;92.55;95847.09;4951651;28;20038;-46
2023/01/21 09:16:22;;;;;;;34.58;19.02;;;3.50;59.80;;;-3.13;92.94;95852.56;4955278;28;20560;-45
2023/01/21 09:18:48;;;;;;;34.47;19.83;;;3.70;59.60;;;-3.08;92.08;95850.25;4969431;28;20113;-46
2023/01/21 09:21:15;;;;;;;37.20;20.42;;;3.90;59.40;;;-3.00;91.87;95853.81;4971898;28;20563;-44
2023/01/21 09:23:42;;;;;;;33.30;19.58;;;4.00;59.30;;;-2.97;91.34;95848.25;4970010;28;20080;-44
2023/01/21 09:26:22;;;;;;;39.88;20.48;;;4.00;59.10;;;-3.13;91.64;95846.56;4970205;28;20028;-44
2023/01/21 09:28:57;;;;;;;37.45;20.63;;;4.00;58.80;;;-3.09;91.91;95856.44;4938445;28;20069;-44
2023/01/21 09:31:26;;;;;;;37.92;21.23;;;4.10;59.30;;;-3.11;91.48;95855.78;4962890;28;20355;-47
2023/01/21 09:34:03;;;;;;;37.92;21.88;;;4.20;58.60;;;-2.93;91.52;95857.31;4968025;28;20029;-51
2023/01/21 09:36:34;;;;;;;33.33;19.95;;;4.30;58.50;;;-2.88;91.17;95855.03;4970263;28;20132;-51
2023/01/21 09:39:01;;;;;;;35.70;20.20;;;4.50;58.30;;;-2.84;90.13;95856.28;4961719;28;20477;-45
2023/01/21 09:41:38;;;;;;;34.13;21.02;;;4.60;58.20;;;-2.71;90.30;95855.69;4957594;28;20093;-44
2023/01/21 09:44:43;;;;;;;37.70;20.75;;;4.70;58.00;;;-2.51;89.94;95858.63;4935653;28;79594;-46
2023/01/21 09:47:42;;;;;;;35.78;20.88;;;4.90;57.80;;;-2.28;87.97;95863.81;4947604;28;20061;-45
2023/01/21 09:50:23;;;;;;;32.55;20.13;;;5.10;57.80;;;-2.25;87.50;95866.06;4949743;28;20041;-50
2023/01/21 09:52:58;;;;;;;37.65;19.88;;;5.30;57.70;;;-2.32;87.65;95865.94;4953563;28;20033;-50
2023/01/21 09:55:48;;;;;;;28.88;17.27;;;5.40;57.60;;;-2.36;87.30;95864.69;4952516;28;20090;-47
2023/01/21 09:58:48;;;;;;;29.58;18.80;;;5.30;57.30;;;-2.18;88.01;95857.34;4951047;28;20036;-46
2023/01/21 10:01:46;;;;;;;29.48;16.75;;;5.40;57.40;;;-2.12;86.71;95855.81;4963914;28;20170;-46
2023/01/21 10:04:38;;;;;;;26.05;15.90;;;5.50;57.40;;;-1.88;86.81;95859.97;4953158;28;20050;-51
2023/01/21 10:07:24;;;;;;;25.67;15.93;;;5.60;57.40;;;-1.65;85.58;95855.47;4959542;28;20062;-46
2023/01/21 10:10:14;;;;;;;25.13;15.05;;;5.80;57.20;;;-1.49;85.13;95848.44;4912426;28;22570;-46
2023/01/21 10:13:17;;;;;;;26.80;14.60;;;6.00;57.00;;;-1.35;84.07;95847.56;4968194;28;20147;-46
2023/01/21 10:16:48;;;;;;;23.88;14.27;;;6.10;56.90;;;-1.35;83.43;95852.81;4969002;28;20026;-46
2023/01/21 10:19:28;;;;;;;22.80;14.07;;;6.10;56.80;;;-1.43;83.42;95845.88;4922696;28;20691;-46
2023/01/21 10:22:19;;;;;;;21.38;13.85;;;6.10;56.60;;;-1.65;84.49;95852.06;4961561;28;20033;-46
2023/01/21 10:25:01;;;;;;;24.90;14.80;;;6.20;56.30;;;-1.72;84.09;95844.13;4940630;28;20125;-46
2023/01/21 10:27:36;;;;;;;25.33;15.73;;;6.20;56.20;;;-1.49;84.18;95846.63;4940428;28;20066;-47
2023/01/21 10:30:31;;;;;;;24.75;15.50;;;6.20;56.10;;;-1.27;83.26;95841.44;4967947;28;20033;-46
2023/01/21 10:32:58;;;;;;;28.55;16.42;;;6.40;56.20;;;-1.19;82.39;95838.72;4957849;28;20026;-46